Time;durP1;ratioP1;P1;durP2;ratioP2;P2;SDS_P1;SDS_P2;PMS_P1;PMS_P2;Temp;Humidity;BMP_temperature;BMP_pressure;BME280_temperature;BME280_humidity;BME280_pressure;Samples;Min_cycle;Max_cycle;Signal;HPM_P1;HPM_P2
2023/02/12 00:02:16;;;;;;;28.00;14.55;;;5.70;99.90;;;;;;5008713;28;20042;-67
2023/02/12 00:04:42;;;;;;;22.38;12.85;;;5.70;99.90;;;;;;4990983;28;20053;-67
2023/02/12 00:07:08;;;;;;;23.60;13.55;;;5.70;99.90;;;;;;5009378;28;20038;-67
2023/02/12 00:09:35;;;;;;;29.52;14.18;;;5.70;99.90;;;;;;5008679;28;20036;-67
2023/02/12 00:12:01;;;;;;;31.65;13.65;;;5.70;99.90;;;;;;5008884;28;20160;-67
2023/02/12 00:14:26;;;;;;;24.05;14.05;;;5.60;99.90;;;;;;5012912;28;20033;-67
2023/02/12 00:16:52;;;;;;;26.85;13.60;;;5.60;99.90;;;;;;5012858;28;20121;-67
2023/02/12 00:19:18;;;;;;;26.98;14.32;;;5.60;99.90;;;;;;4994529;28;20045;-67
2023/02/12 00:21:43;;;;;;;23.02;13.00;;;5.50;99.90;;;;;;5012077;28;20045;-67
2023/02/12 00:24:09;;;;;;;25.35;13.15;;;5.50;99.90;;;;;;4994643;28;20038;-67
2023/02/12 00:26:35;;;;;;;30.10;13.65;;;5.50;99.90;;;;;;5012276;28;20080;-68
2023/02/12 00:29:01;;;;;;;24.05;13.90;;;5.50;99.90;;;;;;5012626;28;20069;-68
2023/02/12 00:31:29;;;;;;;24.92;14.20;;;5.50;99.90;;;;;;5012775;28;20034;-68
2023/02/12 00:33:56;;;;;;;25.08;14.43;;;5.40;99.90;;;;;;4995158;28;20065;-68
2023/02/12 00:36:25;;;;;;;38.47;15.55;;;5.40;99.90;;;;;;5011532;28;20200;-68
2023/02/12 00:38:53;;;;;;;33.60;15.60;;;5.40;99.90;;;;;;4994742;28;20053;-68
2023/02/12 00:41:20;;;;;;;29.52;15.68;;;5.40;99.90;;;;;;5009512;28;20042;-68
2023/02/12 00:43:46;;;;;;;35.85;15.40;;;5.40;99.90;;;;;;5012727;28;20026;-68
2023/02/12 00:46:12;;;;;;;44.55;17.10;;;5.40;99.90;;;;;;5011851;28;20052;-67
2023/02/12 00:48:38;;;;;;;30.73;17.23;;;5.40;99.90;;;;;;5012522;28;20273;-67
2023/02/12 00:51:04;;;;;;;36.25;17.15;;;5.40;99.90;;;;;;4993847;28;20378;-67
2023/02/12 00:53:30;;;;;;;34.67;17.10;;;5.40;99.90;;;;;;5010447;28;20081;-67
2023/02/12 00:55:56;;;;;;;52.38;17.67;;;5.30;99.90;;;;;;5011697;28;20049;-67
2023/02/12 00:58:22;;;;;;;53.50;18.77;;;5.40;99.90;;;;;;5012368;28;20041;-66
2023/02/12 01:00:48;;;;;;;37.28;19.13;;;5.40;99.90;;;;;;5011387;28;20435;-66
2023/02/12 01:03:14;;;;;;;32.03;17.75;;;5.40;99.90;;;;;;5011793;28;20367;-66
2023/02/12 01:05:40;;;;;;;38.40;18.13;;;5.30;99.90;;;;;;5011342;28;20038;-66
2023/02/12 01:08:06;;;;;;;53.33;17.15;;;5.30;99.90;;;;;;4991208;28;20092;-66
2023/02/12 01:10:33;;;;;;;44.35;18.02;;;5.30;99.90;;;;;;5008676;28;20454;-66
2023/02/12 01:12:59;;;;;;;26.98;16.98;;;5.30;99.90;;;;;;5011903;28;20041;-66
2023/02/12 01:15:25;;;;;;;39.38;17.45;;;5.30;99.90;;;;;;5011730;28;20038;-66
2023/02/12 01:17:52;;;;;;;45.22;17.00;;;5.30;99.90;;;;;;5011662;28;20157;-66
2023/02/12 01:20:20;;;;;;;39.17;16.88;;;5.30;99.90;;;;;;5011580;28;20078;-66
2023/02/12 01:22:46;;;;;;;48.38;16.33;;;5.30;99.90;;;;;;5010563;28;20095;-66
2023/02/12 01:25:12;;;;;;;70.72;18.55;;;5.30;99.90;;;;;;5011972;28;20038;-66
2023/02/12 01:27:38;;;;;;;30.83;16.52;;;5.30;99.90;;;;;;5011152;28;20129;-66
2023/02/12 01:30:06;;;;;;;34.13;15.40;;;5.30;99.90;;;;;;5011747;28;20033;-66
2023/02/12 01:32:33;;;;;;;33.90;16.42;;;5.30;99.90;;;;;;4993386;28;20049;-66
2023/02/12 01:34:59;;;;;;;57.17;17.15;;;5.30;99.90;;;;;;4991796;28;20038;-66
2023/02/12 01:37:24;;;;;;;35.70;17.23;;;5.30;99.90;;;;;;5011218;28;20034;-66
2023/02/12 01:39:50;;;;;;;75.32;19.80;;;5.30;99.90;;;;;;5011562;28;20112;-66
2023/02/12 01:42:17;;;;;;;54.30;17.27;;;5.40;99.90;;;;;;5009741;28;20395;-66
2023/02/12 01:45:11;;;;;;;33.28;15.50;;;5.40;99.90;;;;;;5011422;28;20040;-66
2023/02/12 01:47:37;;;;;;;37.28;15.80;;;5.40;99.90;;;;;;4992871;28;20398;-66
2023/02/12 01:50:05;;;;;;;34.78;16.10;;;5.40;99.90;;;;;;5010605;28;20042;-66
2023/02/12 01:52:34;;;;;;;45.22;16.70;;;5.40;99.90;;;;;;5010259;28;20193;-66
2023/02/12 01:55:04;;;;;;;34.28;16.20;;;5.40;99.90;;;;;;5010428;28;20494;-66
2023/02/12 01:57:34;;;;;;;37.67;16.60;;;5.50;99.90;;;;;;5010422;28;20285;-66
2023/02/12 02:00:04;;;;;;;44.15;16.88;;;5.50;99.90;;;;;;5009597;28;20034;-66
2023/02/12 02:02:31;;;;;;;40.35;17.58;;;5.50;99.90;;;;;;5009106;28;20125;-66
2023/02/12 02:05:00;;;;;;;50.60;18.55;;;5.50;99.90;;;;;;5010368;28;20087;-66
2023/02/12 02:07:26;;;;;;;31.95;16.77;;;5.50;99.90;;;;;;5010655;28;20034;-66
2023/02/12 02:09:53;;;;;;;32.95;16.60;;;5.50;99.90;;;;;;5008044;28;20425;-66
2023/02/12 02:15:04;;;;;;;48.17;16.60;;;5.50;99.90;;;;;;5011650;28;20048;-67
2023/02/12 02:18:01;;;;;;;26.35;16.02;;;5.50;99.90;;;;;;5008942;28;20493;-67
2023/02/12 02:20:53;;;;;;;50.83;17.00;;;5.50;99.90;;;;;;5010296;28;20038;-66
2023/02/12 02:23:48;;;;;;;50.33;17.25;;;5.50;99.90;;;;;;5006598;28;20045;-67
2023/02/12 02:26:41;;;;;;;37.08;17.38;;;5.50;99.90;;;;;;5009325;28;20081;-66
2023/02/12 02:29:22;;;;;;;40.40;17.60;;;5.50;99.90;;;;;;5010615;28;20492;-66
2023/02/12 02:32:02;;;;;;;53.20;18.88;;;5.50;99.90;;;;;;5009543;28;20050;-66
2023/02/12 02:34:56;;;;;;;41.40;18.27;;;5.50;99.90;;;;;;4988506;28;20103;-66
2023/02/12 02:37:39;;;;;;;50.58;17.52;;;5.50;99.90;;;;;;5007643;28;20041;-66
2023/02/12 02:40:18;;;;;;;44.65;17.40;;;5.50;99.90;;;;;;5008091;28;20046;-66
2023/02/12 02:43:16;;;;;;;53.38;18.88;;;5.50;99.90;;;;;;5009448;28;20103;-67
2023/02/12 02:45:47;;;;;;;41.38;18.75;;;5.50;99.90;;;;;;5009698;28;20049;-67
2023/02/12 02:48:44;;;;;;;53.47;19.70;;;5.50;99.90;;;;;;5010100;28;20516;-67
2023/02/12 02:51:17;;;;;;;57.80;18.63;;;5.50;99.90;;;;;;4993448;28;20438;-66
2023/02/12 02:53:53;;;;;;;50.50;18.48;;;5.50;99.90;;;;;;5009295;28;20092;-67
2023/02/12 02:56:22;;;;;;;75.07;20.90;;;5.50;99.90;;;;;;5007807;28;20048;-67
2023/02/12 02:58:56;;;;;;;58.45;20.48;;;5.50;99.90;;;;;;5009783;28;20081;-67
2023/02/12 03:01:30;;;;;;;73.97;21.33;;;5.60;99.90;;;;;;5007083;28;20030;-67
2023/02/12 03:04:04;;;;;;;50.40;19.45;;;5.60;99.90;;;;;;5008676;28;20413;-67
2023/02/12 03:07:06;;;;;;;37.33;19.13;;;5.60;99.90;;;;;;5008295;28;20041;-67
2023/02/12 03:09:40;;;;;;;47.45;20.90;;;5.60;99.90;;;;;;5008745;28;20041;-67
2023/02/12 03:12:24;;;;;;;77.13;23.17;;;5.60;99.90;;;;;;5009737;28;20447;-67
2023/02/12 03:15:00;;;;;;;79.03;23.42;;;5.60;99.90;;;;;;5008842;28;20486;-67
2023/02/12 03:17:32;;;;;;;57.45;21.42;;;5.60;99.90;;;;;;5009123;28;20421;-66
2023/02/12 03:20:12;;;;;;;57.28;22.42;;;5.60;99.90;;;;;;4991192;28;20049;-66
2023/02/12 03:22:43;;;;;;;43.75;21.17;;;5.60;99.90;;;;;;5007163;28;20081;-66
2023/02/12 03:25:13;;;;;;;52.10;21.63;;;5.60;99.90;;;;;;4992197;28;20458;-67
2023/02/12 03:28:08;;;;;;;52.95;22.23;;;5.60;99.90;;;;;;5009862;28;20034;-67
2023/02/12 03:31:00;;;;;;;47.55;22.02;;;5.60;99.90;;;;;;5008497;28;20057;-67
2023/02/12 03:33:44;;;;;;;77.68;23.45;;;5.60;99.90;;;;;;4988971;28;20046;-67
2023/02/12 03:36:18;;;;;;;49.15;22.23;;;5.60;99.90;;;;;;5008698;28;20353;-67
2023/02/12 03:38:46;;;;;;;;;;;5.60;99.90;;;;;;4991789;28;20054;-67
2023/02/12 03:41:26;;;;;;;39.33;19.77;;;5.60;99.90;;;;;;5007165;28;19960;-67
2023/02/12 03:44:04;;;;;;;31.42;19.75;;;5.60;99.90;;;;;;5009707;28;20073;-67
2023/02/12 03:46:45;;;;;;;42.20;21.88;;;5.60;99.90;;;;;;5009463;28;20466;-67
2023/02/12 03:49:17;;;;;;;36.95;21.35;;;5.60;99.90;;;;;;5013123;28;20453;-67
2023/02/12 03:51:44;;;;;;;48.78;21.38;;;5.60;99.90;;;;;;4995361;28;20073;-67
2023/02/12 03:54:13;;;;;;;76.65;24.33;;;5.60;99.90;;;;;;5012552;28;20046;-67
2023/02/12 03:56:51;;;;;;;53.85;22.00;;;5.60;99.90;;;;;;5013034;28;20354;-67
2023/02/12 03:59:22;;;;;;;60.92;20.85;;;5.70;99.90;;;;;;5011148;28;20437;-67
2023/02/12 04:01:50;;;;;;;68.00;21.88;;;5.60;99.90;;;;;;5012272;28;20537;-67
2023/02/12 04:04:16;;;;;;;131.18;26.73;;;5.60;99.90;;;;;;4994749;28;20041;-67
2023/02/12 04:06:44;;;;;;;43.65;19.98;;;5.60;99.90;;;;;;4994872;28;20041;-67
2023/02/12 04:09:11;;;;;;;68.95;19.88;;;5.60;99.90;;;;;;5009323;28;20444;-67
2023/02/12 04:11:58;;;;;;;74.30;21.23;;;5.60;99.90;;;;;;5009932;28;20068;-67
2023/02/12 04:14:45;;;;;;;51.22;18.73;;;5.60;99.90;;;;;;5011952;28;20131;-67
2023/02/12 04:17:18;;;;;;;93.57;18.92;;;5.60;99.90;;;;;;4995477;28;20409;-67
2023/02/12 04:19:47;;;;;;;87.85;21.00;;;5.60;99.90;;;;;;5012374;28;20045;-67
2023/02/12 04:22:19;;;;;;;103.38;20.52;;;5.60;99.90;;;;;;5012226;28;20084;-67
2023/02/12 04:25:03;;;;;;;76.90;18.88;;;5.60;99.90;;;;;;4994632;28;20117;-67
2023/02/12 04:27:41;;;;;;;54.50;18.02;;;5.60;99.90;;;;;;5011761;28;20042;-67
2023/02/12 04:30:23;;;;;;;68.07;18.35;;;5.60;99.90;;;;;;5010310;28;20038;-67
2023/02/12 04:32:56;;;;;;;101.43;19.85;;;5.60;99.90;;;;;;5012248;28;20077;-66
2023/02/12 04:35:27;;;;;;;171.10;23.67;;;5.60;99.90;;;;;;4994724;28;20490;-67
2023/02/12 04:38:07;;;;;;;119.25;22.60;;;5.60;99.90;;;;;;5012183;28;20401;-67
2023/02/12 04:40:34;;;;;;;62.55;19.25;;;5.60;99.90;;;;;;5010440;28;20042;-67
2023/02/12 04:43:00;;;;;;;132.10;22.05;;;5.60;99.90;;;;;;4994701;28;20037;-67
2023/02/12 04:45:29;;;;;;;70.22;18.70;;;5.60;99.90;;;;;;4994494;28;20175;-66
2023/02/12 04:47:56;;;;;;;73.20;19.65;;;5.60;99.90;;;;;;5012082;28;20034;-67
2023/02/12 04:50:22;;;;;;;118.93;22.45;;;5.50;99.90;;;;;;5012678;28;20108;-67
2023/02/12 04:52:47;;;;;;;85.57;18.30;;;5.60;99.90;;;;;;5011666;28;20061;-67
2023/02/12 04:55:13;;;;;;;67.95;18.73;;;5.60;99.90;;;;;;5012036;28;20371;-67
2023/02/12 04:57:39;;;;;;;80.35;18.95;;;5.50;99.90;;;;;;5011337;28;20041;-67
2023/02/12 05:00:07;;;;;;;82.90;18.30;;;5.50;99.90;;;;;;5011820;28;20029;-67
2023/02/12 05:02:33;;;;;;;77.32;20.05;;;5.50;99.90;;;;;;4993594;28;20053;-66
2023/02/12 05:04:59;;;;;;;82.40;20.15;;;5.60;99.90;;;;;;5011240;28;20040;-67
2023/02/12 05:07:25;;;;;;;86.05;19.92;;;5.60;99.90;;;;;;5011897;28;20033;-66
2023/02/12 05:09:51;;;;;;;97.30;22.05;;;5.50;99.90;;;;;;5010804;28;20045;-66
2023/02/12 05:12:16;;;;;;;73.07;23.00;;;5.50;99.90;;;;;;4993967;28;20075;-66
2023/02/12 05:14:42;;;;;;;69.50;21.98;;;5.60;99.90;;;;;;5011566;28;20124;-66
2023/02/12 05:17:08;;;;;;;71.35;21.90;;;5.60;99.90;;;;;;5012118;28;20072;-66
2023/02/12 05:19:34;;;;;;;81.15;21.88;;;5.50;99.90;;;;;;5011163;28;20421;-66
2023/02/12 05:21:59;;;;;;;90.53;25.38;;;5.50;99.90;;;;;;5011795;28;20042;-66
2023/02/12 05:24:25;;;;;;;46.97;21.17;;;5.50;99.90;;;;;;5011178;28;20567;-67
2023/02/12 05:26:51;;;;;;;66.40;23.98;;;5.50;99.90;;;;;;5011518;28;20091;-67
2023/02/12 05:29:18;;;;;;;47.72;22.20;;;5.40;99.90;;;;;;5010982;28;20402;-67
2023/02/12 05:31:44;;;;;;;63.83;24.52;;;5.40;99.90;;;;;;5011349;28;20037;-67
2023/02/12 05:34:11;;;;;;;46.22;21.02;;;5.40;99.90;;;;;;5011426;28;20041;-67
2023/02/12 05:36:37;;;;;;;45.22;21.60;;;5.40;99.90;;;;;;5011587;28;20074;-67
2023/02/12 05:39:03;;;;;;;53.10;20.85;;;5.40;99.90;;;;;;5010507;28;20125;-67
2023/02/12 05:41:33;;;;;;;35.05;19.15;;;5.40;99.90;;;;;;4993314;28;20129;-67
2023/02/12 05:43:59;;;;;;;48.75;19.73;;;5.40;99.90;;;;;;5011384;28;20034;-67
2023/02/12 05:46:25;;;;;;;42.65;19.23;;;5.40;99.90;;;;;;4993469;28;20069;-67
2023/02/12 05:48:51;;;;;;;41.65;20.15;;;5.40;99.90;;;;;;5003436;28;20088;-67
2023/02/12 05:51:22;;;;;;;38.72;20.17;;;5.40;99.90;;;;;;4990810;28;20084;-67
2023/02/12 05:53:51;;;;;;;32.42;18.80;;;5.40;99.90;;;;;;4992986;28;20050;-67
2023/02/12 05:56:23;;;;;;;34.83;19.52;;;5.30;99.90;;;;;;5007677;28;20375;-67
2023/02/12 05:59:04;;;;;;;45.95;20.88;;;5.30;99.90;;;;;;5009248;28;20145;-67
2023/02/12 06:01:36;;;;;;;41.45;20.38;;;5.30;99.90;;;;;;5008222;28;20046;-67
2023/02/12 06:04:05;;;;;;;51.08;21.15;;;5.30;99.90;;;;;;5009555;28;20501;-65
2023/02/12 06:06:31;;;;;;;44.10;20.73;;;5.30;99.90;;;;;;5010784;28;20458;-66
2023/02/12 06:08:59;;;;;;;38.17;19.70;;;5.30;99.90;;;;;;5008948;28;20038;-66
2023/02/12 06:11:25;;;;;;;59.17;21.58;;;5.30;99.90;;;;;;5010653;28;20045;-66
2023/02/12 06:13:51;;;;;;;44.47;20.52;;;5.30;99.90;;;;;;4993078;28;20048;-66
2023/02/12 06:16:25;;;;;;;39.85;19.83;;;5.40;99.90;;;;;;5010325;28;20557;-66
2023/02/12 06:18:52;;;;;;;;;;;5.30;99.90;;;;;;5009139;28;20053;-66
2023/02/12 06:21:19;;;;;;;34.53;17.23;;;5.30;99.90;;;;;;5009804;28;19928;-66
2023/02/12 06:23:45;;;;;;;38.42;18.77;;;5.30;99.90;;;;;;4992715;28;20538;-66
2023/02/12 06:26:11;;;;;;;33.60;17.70;;;5.30;99.90;;;;;;5010090;28;20117;-66
2023/02/12 06:28:37;;;;;;;41.42;20.10;;;5.30;99.90;;;;;;5010671;28;20125;-66
2023/02/12 06:31:03;;;;;;;35.47;19.25;;;5.30;99.90;;;;;;4992282;28;20117;-67
2023/02/12 06:33:29;;;;;;;41.05;20.60;;;5.30;99.90;;;;;;4992720;28;20049;-67
2023/02/12 06:35:55;;;;;;;36.25;19.27;;;5.30;99.90;;;;;;5009901;28;20034;-67
2023/02/12 06:38:21;;;;;;;45.40;21.15;;;5.30;99.90;;;;;;5009871;28;20485;-67
2023/02/12 06:40:47;;;;;;;41.35;20.42;;;5.30;99.90;;;;;;5009867;28;20381;-67
2023/02/12 06:43:13;;;;;;;40.95;21.05;;;5.30;99.90;;;;;;5010303;28;20046;-67
2023/02/12 06:45:39;;;;;;;44.33;21.27;;;5.20;99.90;;;;;;5009855;28;20065;-67
2023/02/12 06:48:04;;;;;;;50.33;22.77;;;5.30;99.90;;;;;;5007693;28;20088;-67
2023/02/12 06:50:30;;;;;;;45.17;22.60;;;5.30;99.90;;;;;;5009136;28;20367;-66
2023/02/12 06:52:58;;;;;;;53.67;24.00;;;5.30;99.90;;;;;;5009566;28;20038;-67
2023/02/12 06:55:24;;;;;;;58.25;24.92;;;5.30;99.90;;;;;;5009579;28;20058;-67
2023/02/12 06:57:49;;;;;;;54.17;24.40;;;5.20;99.90;;;;;;5009870;28;20557;-67
2023/02/12 07:00:15;;;;;;;49.03;22.92;;;5.30;99.90;;;;;;5009670;28;20482;-66
2023/02/12 07:02:41;;;;;;;52.38;24.48;;;5.30;99.90;;;;;;5009853;28;20065;-67
2023/02/12 07:05:07;;;;;;;61.83;24.95;;;5.30;99.90;;;;;;4991944;28;20072;-67
2023/02/12 07:07:33;;;;;;;56.35;24.75;;;5.30;99.90;;;;;;5009672;28;20041;-67
2023/02/12 07:09:59;;;;;;;62.20;25.60;;;5.30;99.90;;;;;;5007028;28;20064;-67
2023/02/12 07:12:24;;;;;;;54.55;25.85;;;5.30;99.90;;;;;;4991833;28;20084;-67
2023/02/12 07:14:50;;;;;;;59.88;25.95;;;5.30;99.90;;;;;;5009537;28;20046;-67
2023/02/12 07:17:16;;;;;;;61.50;25.33;;;5.30;99.90;;;;;;5009671;28;20042;-67
2023/02/12 07:19:41;;;;;;;63.08;25.08;;;5.40;99.90;;;;;;5009331;28;20037;-67
2023/02/12 07:22:07;;;;;;;67.93;24.33;;;5.40;99.90;;;;;;5009734;28;20048;-67
2023/02/12 07:24:33;;;;;;;52.47;24.27;;;5.40;99.90;;;;;;5009194;28;20044;-67
2023/02/12 07:26:58;;;;;;;57.03;24.45;;;5.40;99.90;;;;;;5009688;28;20045;-67
2023/02/12 07:29:24;;;;;;;68.63;25.70;;;5.40;99.90;;;;;;5009577;28;20479;-67
2023/02/12 07:31:50;;;;;;;48.25;22.92;;;5.50;99.90;;;;;;5009767;28;20056;-67
2023/02/12 07:34:16;;;;;;;57.28;24.27;;;5.50;99.90;;;;;;5009069;28;20045;-67
2023/02/12 07:36:41;;;;;;;48.65;23.08;;;5.50;99.90;;;;;;4991848;28;20072;-67
2023/02/12 07:39:10;;;;;;;52.08;23.90;;;5.50;99.90;;;;;;5009539;28;20049;-67
2023/02/12 07:41:35;;;;;;;50.47;23.52;;;5.60;99.90;;;;;;4992075;28;20155;-67
2023/02/12 07:44:08;;;;;;;48.50;23.60;;;5.60;99.90;;;;;;5009501;28;20069;-67
2023/02/12 07:46:43;;;;;;;51.58;23.67;;;5.60;99.90;;;;;;4992267;28;20466;-67
2023/02/12 07:49:13;;;;;;;45.13;22.75;;;5.70;99.90;;;;;;5007860;28;20292;-67
2023/02/12 07:51:39;;;;;;;52.67;24.70;;;5.60;99.90;;;;;;5009735;28;20129;-67
2023/02/12 07:54:05;;;;;;;46.42;22.05;;;5.70;99.90;;;;;;4991437;28;20050;-67
2023/02/12 07:56:34;;;;;;;46.05;22.90;;;5.70;99.90;;;;;;5009325;28;20060;-67
2023/02/12 07:59:03;;;;;;;47.10;24.25;;;5.80;99.90;;;;;;4991812;28;20125;-67
2023/02/12 08:01:35;;;;;;;44.60;22.70;;;5.80;99.90;;;;;;4989490;28;20057;-67
2023/02/12 08:04:07;;;;;;;52.30;24.45;;;5.80;99.90;;;;;;5006884;28;20038;-67
2023/02/12 08:06:35;;;;;;;49.40;24.05;;;5.80;99.90;;;;;;5008764;28;20394;-67
2023/02/12 08:09:02;;;;;;;49.50;22.90;;;5.90;99.90;;;;;;5007761;28;20112;-67
2023/02/12 08:11:29;;;;;;;45.72;22.50;;;5.90;99.90;;;;;;5009068;28;20046;-67
2023/02/12 08:13:56;;;;;;;43.45;22.77;;;5.90;99.90;;;;;;4991573;28;20068;-67
2023/02/12 08:16:25;;;;;;;43.17;23.30;;;6.00;99.90;;;;;;4984965;28;20046;-67
2023/02/12 08:18:51;;;;;;;44.45;23.77;;;6.00;99.90;;;;;;5009901;28;20033;-67
2023/02/12 08:21:20;;;;;;;40.55;22.88;;;6.10;99.90;;;;;;5008514;28;20445;-67
2023/02/12 08:23:49;;;;;;;43.53;24.52;;;6.10;99.90;;;;;;5009099;28;20271;-67
2023/02/12 08:26:18;;;;;;;41.83;23.45;;;6.20;99.90;;;;;;5008413;28;20073;-67
2023/02/12 08:28:47;;;;;;;44.83;23.50;;;6.20;99.90;;;;;;5009647;28;20045;-67
2023/02/12 08:31:19;;;;;;;45.38;24.75;;;6.20;99.90;;;;;;5008995;28;20422;-67
2023/02/12 08:33:47;;;;;;;38.75;21.98;;;6.30;99.90;;;;;;5011111;28;20055;-67
2023/02/12 08:36:15;;;;;;;41.20;22.25;;;6.30;99.90;;;;;;5011492;28;20050;-67
2023/02/12 08:38:41;;;;;;;41.58;23.30;;;6.40;99.90;;;;;;5012152;28;20124;-67
2023/02/12 08:41:10;;;;;;;42.47;23.70;;;6.40;99.90;;;;;;4994345;28;20046;-67
2023/02/12 08:43:39;;;;;;;43.63;23.58;;;6.40;99.90;;;;;;4990293;28;20046;-67
2023/02/12 08:46:08;;;;;;;43.20;23.80;;;6.50;99.90;;;;;;5011950;28;20038;-67
2023/02/12 08:48:34;;;;;;;40.10;23.17;;;6.50;99.90;;;;;;5012715;28;20040;-67
2023/02/12 08:51:09;;;;;;;42.90;22.67;;;6.60;99.90;;;;;;4993561;28;20078;-67
2023/02/12 08:53:34;;;;;;;;;;;6.60;99.90;;;;;;5011032;28;20034;-67
2023/02/12 08:56:00;;;;;;;38.60;23.55;;;6.70;99.90;;;;;;5011766;28;19922;-67
2023/02/12 08:58:26;;;;;;;44.22;24.50;;;6.70;99.90;;;;;;5012032;28;20045;-67
2023/02/12 09:00:52;;;;;;;38.38;22.80;;;6.80;99.90;;;;;;5011976;28;20054;-67
2023/02/12 09:03:18;;;;;;;39.97;24.13;;;6.90;99.90;;;;;;5011520;28;20552;-67
2023/02/12 09:05:44;;;;;;;36.65;21.98;;;7.00;99.90;;;;;;5011842;28;20034;-67
2023/02/12 09:08:09;;;;;;;38.67;23.52;;;7.10;99.90;;;;;;5011509;28;20034;-67
2023/02/12 09:10:39;;;;;;;38.33;22.73;;;7.20;99.90;;;;;;4994099;28;20042;-67
2023/02/12 09:13:10;;;;;;;35.75;22.52;;;7.20;99.90;;;;;;5012201;28;20045;-67
2023/02/12 09:15:43;;;;;;;39.05;23.35;;;7.30;99.90;;;;;;5011667;28;20045;-67
2023/02/12 09:18:10;;;;;;;38.33;23.08;;;7.30;99.90;;;;;;5010410;28;20494;-67
2023/02/12 09:20:38;;;;;;;39.13;23.40;;;7.40;99.90;;;;;;5011117;28;20068;-67
2023/02/12 09:23:04;;;;;;;34.13;21.15;;;7.50;99.90;;;;;;5010434;28;20038;-65
2023/02/12 09:25:33;;;;;;;34.03;22.10;;;7.60;99.90;;;;;;5011860;28;20038;-66
2023/02/12 09:28:02;;;;;;;32.40;21.70;;;7.50;99.90;;;;;;5011529;28;20216;-65
2023/02/12 09:30:28;;;;;;;36.78;22.13;;;7.60;99.90;;;;;;5011438;28;20037;-67
2023/02/12 09:32:55;;;;;;;35.70;22.23;;;7.60;99.90;;;;;;4993669;28;20037;-67
2023/02/12 09:35:21;;;;;;;36.72;21.77;;;7.70;99.90;;;;;;4993217;28;20084;-67
2023/02/12 09:37:47;;;;;;;36.75;22.13;;;7.80;99.90;;;;;;4993503;28;20486;-67
2023/02/12 09:40:26;;;;;;;33.50;21.20;;;7.80;99.90;;;;;;5011084;28;20041;-67
2023/02/12 09:43:07;;;;;;;35.28;21.38;;;7.90;99.90;;;;;;5010466;28;20045;-67
2023/02/12 09:45:39;;;;;;;33.50;21.33;;;8.00;99.90;;;;;;5011252;28;20053;-67
2023/02/12 09:48:17;;;;;;;32.95;21.83;;;8.10;99.90;;;;;;4992346;28;20041;-67
2023/02/12 09:50:52;;;;;;;37.05;21.80;;;8.10;99.90;;;;;;5008851;28;20426;-65
2023/02/12 09:53:22;;;;;;;32.60;21.00;;;8.20;99.90;;;;;;5010678;28;20450;-65
2023/02/12 09:55:48;;;;;;;30.33;20.60;;;8.20;99.90;;;;;;5010026;28;20054;-65
2023/02/12 09:58:34;;;;;;;28.35;19.67;;;8.20;99.90;;;;;;5011010;28;20038;-65
2023/02/12 10:01:08;;;;;;;30.52;19.42;;;8.30;99.90;;;;;;4993192;28;20498;-65
2023/02/12 10:03:34;;;;;;;33.95;21.95;;;8.30;99.90;;;;;;5010457;28;20417;-65
2023/02/12 10:06:05;;;;;;;35.50;21.58;;;8.30;99.90;;;;;;5010023;28;20041;-65
2023/02/12 10:08:34;;;;;;;30.98;21.10;;;8.40;99.90;;;;;;5007903;28;20625;-65
2023/02/12 10:11:24;;;;;;;29.80;19.35;;;8.40;99.90;;;;;;5010376;28;20070;-66
2023/02/12 10:14:18;;;;;;;29.25;19.60;;;8.60;99.90;;;;;;5010470;28;20046;-65
2023/02/12 10:17:05;;;;;;;30.00;19.15;;;8.60;99.90;;;;;;5010604;28;20073;-65
2023/02/12 10:20:20;;;;;;;29.33;18.77;;;8.70;99.90;;;;;;5010298;28;20115;-65
2023/02/12 10:23:10;;;;;;;29.30;19.08;;;8.90;99.90;;;;;;5008448;28;20112;-66
2023/02/12 10:25:45;;;;;;;24.52;17.02;;;9.10;99.90;;;;;;4992493;28;20088;-66
2023/02/12 10:28:38;;;;;;;26.50;19.13;;;9.30;99.90;;;;;;5009887;28;20069;-66
2023/02/12 10:31:26;;;;;;;27.55;18.30;;;9.30;99.90;;;;;;4988674;28;20534;-65
2023/02/12 10:33:53;;;;;;;27.08;17.15;;;9.50;99.90;;;;;;5009795;28;20111;-65
2023/02/12 10:36:27;;;;;;;23.27;17.77;;;9.70;99.90;;;;;;4991997;28;20050;-65
2023/02/12 10:39:00;;;;;;;26.88;18.73;;;9.90;99.90;;;;;;5009803;28;20068;-65
2023/02/12 10:41:28;;;;;;;24.45;17.67;;;9.90;99.90;;;;;;5009142;28;20033;-65
2023/02/12 10:43:54;;;;;;;24.58;17.50;;;9.80;99.90;;;;;;5010182;28;20371;-65
2023/02/12 10:46:20;;;;;;;25.50;17.80;;;9.80;99.90;;;;;;5010001;28;20040;-65
2023/02/12 10:48:52;;;;;;;25.35;17.60;;;9.80;99.90;;;;;;5010451;28;20328;-65
2023/02/12 10:51:39;;;;;;;29.80;17.50;;;9.80;99.90;;;;;;5009393;28;20056;-65
2023/02/12 10:54:39;;;;;;;28.00;18.33;;;9.90;99.90;;;;;;5009153;28;20434;-65
2023/02/12 10:57:13;;;;;;;25.75;16.65;;;9.80;99.90;;;;;;4988675;28;20082;-65
2023/02/12 10:59:40;;;;;;;23.95;16.13;;;9.80;99.90;;;;;;5009982;28;20533;-65
2023/02/12 11:02:27;;;;;;;23.95;17.00;;;9.80;99.90;;;;;;4992711;28;20053;-65
2023/02/12 11:04:54;;;;;;;24.70;17.55;;;9.80;99.90;;;;;;5008001;28;20046;-65
2023/02/12 11:07:20;;;;;;;23.75;16.17;;;9.80;99.90;;;;;;5009483;28;20277;-65
2023/02/12 11:09:49;;;;;;;25.23;17.80;;;9.90;99.90;;;;;;5009219;28;20557;-65
2023/02/12 11:12:43;;;;;;;25.40;16.90;;;9.90;99.90;;;;;;5009653;28;20115;-65
2023/02/12 11:15:18;;;;;;;25.13;16.50;;;10.00;99.90;;;;;;5009696;28;20046;-65
2023/02/12 11:17:56;;;;;;;;;;;10.00;99.90;;;;;;5010323;28;20409;-65
2023/02/12 11:20:26;;;;;;;25.98;15.50;;;10.00;99.90;;;;;;4989201;28;19918;-64
2023/02/12 11:22:54;;;;;;;24.45;16.40;;;10.00;99.90;;;;;;5008816;28;20049;-65
2023/02/12 11:25:21;;;;;;;23.05;16.98;;;10.00;99.90;;;;;;5009473;28;20598;-65
2023/02/12 11:28:17;;;;;;;28.75;17.08;;;10.00;99.90;;;;;;4991580;28;20065;-65
2023/02/12 11:30:55;;;;;;;22.10;15.77;;;10.00;99.90;;;;;;4991433;28;20049;-65
2023/02/12 11:33:23;;;;;;;26.73;17.02;;;10.00;99.90;;;;;;5009737;28;20038;-65
2023/02/12 11:36:06;;;;;;;22.27;16.05;;;10.10;99.90;;;;;;5009068;28;20110;-65
2023/02/12 11:38:54;;;;;;;26.48;16.20;;;10.10;99.90;;;;;;5009548;28;20049;-65
2023/02/12 11:41:27;;;;;;;22.15;16.15;;;10.10;99.90;;;;;;5006865;28;20046;-65
2023/02/12 11:43:53;;;;;;;23.55;14.07;;;10.10;99.90;;;;;;5009956;28;20042;-65
2023/02/12 11:46:22;;;;;;;22.08;14.60;;;10.10;99.90;;;;;;5009019;28;20073;-65
2023/02/12 11:48:50;;;;;;;22.55;15.73;;;10.20;99.90;;;;;;5009246;28;20104;-65
2023/02/12 11:51:22;;;;;;;21.42;14.50;;;10.10;99.90;;;;;;5008732;28;20046;-65
2023/02/12 11:53:52;;;;;;;19.85;13.68;;;10.10;99.90;;;;;;5008993;28;20045;-65
2023/02/12 11:56:18;;;;;;;20.75;12.90;;;10.10;99.90;;;;;;5008863;28;20046;-65
2023/02/12 11:58:46;;;;;;;17.80;12.60;;;10.10;99.90;;;;;;4990561;28;20096;-65
2023/02/12 12:01:22;;;;;;;20.27;14.25;;;10.10;99.90;;;;;;5007503;28;20544;-65
2023/02/12 12:04:11;;;;;;;18.77;13.18;;;10.00;99.90;;;;;;5009801;28;20073;-65
2023/02/12 12:06:43;;;;;;;20.33;13.30;;;10.00;99.90;;;;;;5009177;28;20093;-65
2023/02/12 12:09:11;;;;;;;16.90;13.00;;;10.00;99.90;;;;;;5010239;28;20034;-65
2023/02/12 12:11:46;;;;;;;19.98;14.27;;;10.00;99.90;;;;;;5012702;28;20041;-64
2023/02/12 12:19:51;;;;;;;20.05;13.75;;;10.00;99.90;;;;;;4995021;28;20049;-65
2023/02/12 12:20:21;;;;;;;;;;;10.00;99.90;;;;;;5012772;28;20041;-65
2023/02/12 12:22:55;;;;;;;18.83;13.45;;;9.90;99.90;;;;;;4993613;28;19922;-65
2023/02/12 12:25:33;;;;;;;19.40;13.45;;;9.80;99.90;;;;;;4991141;28;20498;-64
2023/02/12 12:28:36;;;;;;;18.75;13.45;;;9.90;99.90;;;;;;5012313;28;20091;-65
2023/02/12 12:31:05;;;;;;;19.40;13.43;;;9.80;99.90;;;;;;5012663;28;20046;-65
2023/02/12 12:33:48;;;;;;;21.83;13.68;;;9.80;99.90;;;;;;5012394;28;20045;-65
2023/02/12 12:36:32;;;;;;;18.15;12.23;;;9.90;99.90;;;;;;4994158;28;20180;-65
2023/02/12 12:39:20;;;;;;;18.85;13.10;;;9.80;99.90;;;;;;5012157;28;20046;-66
2023/02/12 12:41:54;;;;;;;19.13;12.70;;;9.90;99.90;;;;;;5011858;28;20050;-66
2023/02/12 12:44:29;;;;;;;;;;;9.90;99.90;;;;;;5012945;28;20034;-66
2023/02/12 12:47:31;;;;;;;20.67;13.77;;;9.80;99.90;;;;;;5012516;28;19924;-66
2023/02/12 12:50:26;;;;;;;18.52;12.75;;;9.80;99.90;;;;;;5011678;28;20034;-66
2023/02/12 12:53:25;;;;;;;18.55;13.02;;;9.80;99.90;;;;;;5008513;28;20046;-66
2023/02/12 12:56:19;;;;;;;17.83;11.75;;;9.80;99.90;;;;;;4994464;28;20120;-66
2023/02/12 12:59:03;;;;;;;15.10;11.02;;;9.80;99.90;;;;;;5012164;28;20049;-66
2023/02/12 13:01:48;;;;;;;16.95;11.07;;;9.80;99.90;;;;;;5010952;28;20041;-66
2023/02/12 13:04:45;;;;;;;17.10;11.25;;;9.80;99.90;;;;;;4993160;28;20496;-66
2023/02/12 13:07:16;;;;;;;14.52;10.32;;;9.90;99.90;;;;;;5012244;28;20379;-66
2023/02/12 13:09:50;;;;;;;18.20;11.18;;;9.80;99.90;;;;;;5010615;28;20411;-66